Hundvaag 1 weather for Jul 1992
Month no. 61
Obs.
Da.
Temp. Dew Point Precip. Wind
Speed
Wind gusts Cloud cover Press. Humidity Wind dir. Sunny OPT
01.07.1992 10,7   2,3                
02.07.1992 11,3   0,0             1  
03.07.1992 13,4   0,0             1  
04.07.1992 14,6   0,0             1  
05.07.1992 16,7   0,0             1  
06.07.1992 13,1   0,0                
07.07.1992 12,4   0,0             1  
08.07.1992 13,5   0,0             1  
09.07.1992 13,2   0,0             1  
10.07.1992 11,5   9,3                
11.07.1992 14,9   2,2             1  
12.07.1992 15,1   0,0             1  
13.07.1992 12,3   15,5             1  
14.07.1992 11,8   2,2             1  
15.07.1992 10,8   2,2             1  
16.07.1992 11,9   0,0             1  
17.07.1992 13,3   1,2                
18.07.1992 16,0   7,1                
19.07.1992 15,0   5,0                
20.07.1992 16,0   1,3                
21.07.1992 15,0   0,0                
22.07.1992 14,0   20,3             1  
23.07.1992 14,0   1,0                
24.07.1992 16,0   0,8                
25.07.1992 20,0   0,0                
26.07.1992 16,0   21,5             1  
27.07.1992 14,0   1,9                
28.07.1992 12,0   3,3             1  
29.07.1992 13,0   2,5                
30.07.1992 13,0   0,0                
31.07.1992 12,0   1,3                
Avrg/Sum 13,8   100,8             16